Time;durP1;ratioP1;P1;durP2;ratioP2;P2;SDS_P1;SDS_P2;PMS_P1;PMS_P2;Temp;Humidity;BMP_temperature;BMP_pressure;BME280_temperature;BME280_humidity;BME280_pressure;Samples;Min_cycle;Max_cycle;Signal;HPM_P1;HPM_P2
2023/10/05 00:04:26;;;;;;;7.30;3.80;;;;;;;12.80;64.34;101158.83;107967;1256;60237;-80
2023/10/05 00:06:54;;;;;;;8.30;3.60;;;;;;;12.79;64.34;101158.27;107776;1261;72420;-80
2023/10/05 00:09:24;;;;;;;7.30;3.70;;;;;;;12.77;64.37;101155.06;107717;1256;72751;-80
2023/10/05 00:11:55;;;;;;;8.00;3.70;;;;;;;12.74;64.31;101156.21;107800;1256;71384;-81
2023/10/05 00:14:26;;;;;;;7.70;3.60;;;;;;;12.73;64.43;101162.78;107763;1259;60446;-80
2023/10/05 00:16:55;;;;;;;5.90;3.50;;;;;;;12.72;64.55;101164.83;107979;1256;60132;-79
2023/10/05 00:19:26;;;;;;;7.10;3.70;;;;;;;12.74;64.53;101165.17;107866;1256;72839;-79
2023/10/05 00:21:56;;;;;;;6.40;3.50;;;;;;;12.78;64.62;101161.02;107845;1256;71290;-79
2023/10/05 00:24:37;;;;;;;5.60;3.20;;;;;;;12.80;64.47;101161.52;107959;1260;72189;-80
2023/10/05 00:27:08;;;;;;;7.90;3.70;;;;;;;12.81;64.51;101156.91;108013;1261;60460;-80
2023/10/05 00:29:41;;;;;;;6.90;3.20;;;;;;;12.80;64.37;101151.75;108112;1256;60358;-81
2023/10/05 00:32:16;;;;;;;;;;;;;;;12.82;64.38;101155.35;108376;1256;72423;-80
2023/10/05 00:34:48;;;;;;;9.30;3.80;;;;;;;12.83;64.44;101157.89;107855;1256;71603;-79
2023/10/05 00:37:17;;;;;;;11.50;3.70;;;;;;;12.81;64.48;101156.90;108018;1256;72985;-80
2023/10/05 00:39:48;;;;;;;5.30;3.20;;;;;;;12.79;64.39;101157.09;108259;1256;60506;-79
2023/10/05 00:42:17;;;;;;;8.00;3.70;;;;;;;12.76;64.20;101158.01;108207;1256;60375;-79
2023/10/05 00:44:46;;;;;;;6.10;3.50;;;;;;;12.70;64.14;101161.01;108098;1256;72641;-80
2023/10/05 00:47:14;;;;;;;6.10;3.30;;;;;;;12.63;64.15;101161.60;108063;1256;72813;-77
2023/10/05 00:49:45;;;;;;;6.90;3.60;;;;;;;12.58;64.20;101168.20;107928;1256;71989;-79
2023/10/05 00:52:15;;;;;;;7.00;3.30;;;;;;;12.55;64.25;101169.89;107836;1257;61933;-79
2023/10/05 00:54:48;;;;;;;5.00;3.30;;;;;;;12.55;64.25;101169.94;107693;1257;60425;-80
2023/10/05 00:57:19;;;;;;;7.30;4.20;;;;;;;12.54;64.46;101168.05;107763;1256;72641;-80
2023/10/05 00:59:58;;;;;;;6.30;3.20;;;;;;;12.51;64.74;101165.25;107835;1256;73969;-81
2023/10/05 01:02:26;;;;;;;6.50;3.30;;;;;;;12.51;64.77;101169.27;107767;1256;71473;-80
2023/10/05 01:15:05;;;;;;;7.80;3.80;;;;;;;12.46;65.06;101173.06;107900;1256;72711;-81
2023/10/05 01:17:35;;;;;;;6.50;4.20;;;;;;;12.49;65.33;101171.87;107888;1256;60653;-80
2023/10/05 01:20:11;;;;;;;7.20;4.40;;;;;;;12.53;65.32;101169.33;107907;1256;60453;-75
2023/10/05 01:22:39;;;;;;;7.40;4.00;;;;;;;12.56;65.17;101171.55;107852;1256;73828;-80
2023/10/05 01:25:08;;;;;;;6.60;4.10;;;;;;;12.58;64.95;101173.66;107740;1257;70275;-81
2023/10/05 01:27:36;;;;;;;7.80;4.00;;;;;;;12.57;64.72;101171.83;107760;1258;71798;-80
2023/10/05 01:30:06;;;;;;;6.80;3.80;;;;;;;12.54;64.67;101177.48;107698;1256;60412;-81
2023/10/05 01:32:35;;;;;;;7.30;3.80;;;;;;;12.51;64.82;101175.85;107722;1256;60345;-80
2023/10/05 01:35:08;;;;;;;6.90;3.80;;;;;;;12.52;64.90;101171.25;107922;1256;72644;-80
2023/10/05 01:37:44;;;;;;;8.80;4.30;;;;;;;12.52;64.84;101175.48;107717;1256;71836;-80
2023/10/05 01:40:36;;;;;;;6.20;3.30;;;;;;;12.49;64.82;101177.70;107895;1260;71655;-80
2023/10/05 01:43:01;;;;;;;6.10;3.20;;;;;;;12.48;64.66;101176.64;107828;1256;60674;-80
2023/10/05 01:45:34;;;;;;;6.10;3.20;;;;;;;12.48;64.63;101182.42;107819;1257;60395;-80
2023/10/05 01:48:05;;;;;;;9.20;4.20;;;;;;;12.45;64.70;101188.34;107861;1256;74004;-80
2023/10/05 01:50:33;;;;;;;8.10;4.00;;;;;;;12.39;64.71;101188.02;107890;1256;72632;-81
2023/10/05 01:53:07;;;;;;;6.30;3.70;;;;;;;12.31;64.58;101191.25;107874;1256;75169;-81
2023/10/05 01:55:35;;;;;;;7.20;3.60;;;;;;;12.25;64.78;101191.25;107922;1256;62201;-81
2023/10/05 01:58:07;;;;;;;7.50;3.40;;;;;;;12.20;64.85;101188.04;107748;1256;59393;-81
2023/10/05 02:00:39;;;;;;;7.60;3.30;;;;;;;12.16;65.02;101193.41;107747;1256;72578;-81
2023/10/05 02:03:12;;;;;;;6.90;3.90;;;;;;;12.10;65.27;101197.31;107742;1256;73177;-81
2023/10/05 02:05:39;;;;;;;6.20;3.80;;;;;;;12.07;65.46;101191.44;107917;1256;71786;-77
2023/10/05 02:08:08;;;;;;;7.60;3.50;;;;;;;12.05;65.52;101195.86;107683;1261;60399;-81
2023/10/05 02:10:45;;;;;;;5.90;3.20;;;;;;;12.03;65.63;101193.80;107825;1256;60427;-81
2023/10/05 02:13:13;;;;;;;7.40;3.90;;;;;;;12.01;65.79;101191.08;107753;1256;73879;-81
2023/10/05 02:15:41;;;;;;;8.60;4.20;;;;;;;12.00;65.99;101195.05;107645;1256;72714;-81
2023/10/05 02:18:18;;;;;;;7.60;4.20;;;;;;;12.01;66.11;101201.09;107682;1259;71515;-81
2023/10/05 02:20:51;;;;;;;7.90;4.00;;;;;;;12.01;66.16;101206.56;107620;1263;60379;-81
2023/10/05 02:23:25;;;;;;;6.30;3.80;;;;;;;12.00;66.17;101204.58;107945;1256;60444;-80
2023/10/05 02:26:05;;;;;;;6.50;4.00;;;;;;;11.98;66.27;101204.88;108010;1256;73901;-80
2023/10/05 02:28:33;;;;;;;8.70;4.30;;;;;;;11.94;66.52;101207.95;107784;1256;71163;-79
2023/10/05 02:31:02;;;;;;;8.70;4.20;;;;;;;11.91;66.64;101214.92;107605;1256;72720;-79
2023/10/05 02:33:32;;;;;;;10.50;4.30;;;;;;;11.88;66.74;101219.71;107645;1257;61671;-80
2023/10/05 02:36:14;;;;;;;9.40;4.50;;;;;;;11.85;66.82;101220.69;107876;1259;60468;-80
2023/10/05 02:38:49;;;;;;;7.20;4.20;;;;;;;11.82;67.00;101221.20;107847;1256;72735;-78
2023/10/05 02:41:23;;;;;;;9.60;4.80;;;;;;;11.79;67.20;101216.62;107672;1257;72722;-78
2023/10/05 02:43:52;;;;;;;7.30;3.90;;;;;;;11.76;67.25;101218.56;107678;1256;73405;-80
2023/10/05 02:46:24;;;;;;;8.10;4.40;;;;;;;11.76;67.38;101215.66;107774;1256;60692;-80
2023/10/05 02:48:52;;;;;;;9.40;4.20;;;;;;;11.72;67.53;101219.36;107674;1256;59380;-80
2023/10/05 02:51:20;;;;;;;6.70;4.20;;;;;;;11.68;67.78;101219.40;107688;1256;73888;-80
2023/10/05 02:53:55;;;;;;;8.70;4.10;;;;;;;11.63;67.92;101218.29;107746;1258;75140;-77
2023/10/05 02:56:29;;;;;;;8.40;4.50;;;;;;;11.61;68.03;101219.91;107754;1256;71693;-80
2023/10/05 02:59:07;;;;;;;8.00;4.40;;;;;;;11.61;68.09;101214.08;107878;1256;61717;-80
2023/10/05 03:01:37;;;;;;;7.10;4.40;;;;;;;11.59;68.32;101214.80;107706;1256;60587;-81
2023/10/05 03:04:10;;;;;;;7.80;4.70;;;;;;;11.57;68.21;101208.14;107726;1256;74101;-81
2023/10/05 03:06:39;;;;;;;8.20;4.70;;;;;;;11.55;68.35;101216.94;107635;1256;72156;-81
2023/10/05 03:09:08;;;;;;;7.00;4.30;;;;;;;11.51;68.42;101215.23;107668;1259;71426;-81
2023/10/05 03:11:40;;;;;;;7.90;4.30;;;;;;;11.49;68.39;101209.58;107833;1256;61481;-80
2023/10/05 03:14:11;;;;;;;;;;;;;;;11.46;68.65;101213.73;107732;1256;60285;-81
2023/10/05 03:16:43;;;;;;;8.60;4.90;;;;;;;11.43;68.71;101211.06;107749;1256;72867;-80
2023/10/05 03:19:18;;;;;;;9.60;4.90;;;;;;;11.40;68.79;101207.48;107918;1256;70764;-81
2023/10/05 03:21:49;;;;;;;9.00;4.90;;;;;;;11.38;69.01;101209.20;107708;1256;71469;-81
2023/10/05 03:24:19;;;;;;;7.70;4.40;;;;;;;11.37;69.02;101209.68;107757;1256;61674;-81
2023/10/05 03:26:47;;;;;;;7.50;4.70;;;;;;;11.36;69.16;101214.02;107747;1256;60342;-81
2023/10/05 03:29:14;;;;;;;10.40;5.10;;;;;;;11.36;69.33;101214.70;107777;1256;73953;-80
2023/10/05 03:34:42;;;;;;;8.70;5.60;;;;;;;11.33;69.57;101213.00;107507;1260;72666;-81
2023/10/05 03:37:13;;;;;;;8.80;5.90;;;;;;;11.32;69.74;101216.05;107714;1256;63611;-81
2023/10/05 03:39:53;;;;;;;9.30;5.10;;;;;;;11.28;69.75;101214.86;107746;1256;60287;-81
2023/10/05 03:42:22;;;;;;;8.60;5.20;;;;;;;11.26;70.00;101220.83;107739;1256;73948;-80
2023/10/05 03:45:01;;;;;;;8.70;5.30;;;;;;;11.24;70.22;101216.66;107926;1256;72625;-83
2023/10/05 03:47:37;;;;;;;7.70;4.50;;;;;;;11.21;70.41;101219.40;107690;1263;72680;-79
2023/10/05 03:50:07;;;;;;;9.30;5.10;;;;;;;11.17;70.42;101217.31;107675;1256;60405;-79
2023/10/05 03:52:35;;;;;;;8.90;5.00;;;;;;;11.14;70.45;101222.13;107718;1256;61445;-81
2023/10/05 03:55:10;;;;;;;8.40;5.10;;;;;;;11.12;70.58;101220.21;107868;1256;72570;-81
2023/10/05 03:57:41;;;;;;;8.90;5.00;;;;;;;11.10;70.71;101223.52;107871;1256;72975;-81
2023/10/05 04:00:23;;;;;;;9.10;5.10;;;;;;;11.08;70.77;101227.54;107897;1256;71833;-80
2023/10/05 04:02:54;;;;;;;;;;;;;;;11.08;70.88;101231.38;107684;1259;61824;-80
2023/10/05 04:05:24;;;;;;;12.40;5.80;;;;;;;11.07;71.04;101228.44;107862;1256;60462;-81
2023/10/05 04:07:52;;;;;;;8.70;4.90;;;;;;;11.06;71.15;101223.41;107415;1256;246633;-79
2023/10/05 04:10:27;;;;;;;9.40;5.20;;;;;;;11.06;71.18;101225.10;107849;1261;72481;-81
2023/10/05 04:12:55;;;;;;;9.00;5.70;;;;;;;11.05;71.33;101230.65;107858;1256;72808;-81
2023/10/05 04:15:23;;;;;;;11.60;5.30;;;;;;;11.05;71.53;101235.10;107736;1256;60435;-80
2023/10/05 04:17:50;;;;;;;9.80;5.20;;;;;;;11.06;71.55;101244.42;107992;1261;59957;-80
2023/10/05 04:20:36;;;;;;;10.70;5.40;;;;;;;11.06;71.66;101241.09;107954;1256;76308;-81
2023/10/05 04:23:03;;;;;;;13.00;5.90;;;;;;;11.04;71.74;101245.19;107718;1256;72965;-80
2023/10/05 04:25:32;;;;;;;9.70;5.60;;;;;;;11.05;71.75;101246.70;107699;1256;72684;-81
2023/10/05 04:28:00;;;;;;;11.40;5.70;;;;;;;11.07;71.85;101246.84;107724;1256;61665;-79
2023/10/05 04:30:28;;;;;;;9.10;5.60;;;;;;;11.08;72.06;101248.40;107777;1256;60290;-81
2023/10/05 04:32:57;;;;;;;11.20;6.80;;;;;;;11.10;72.03;101250.83;107737;1256;73945;-81
2023/10/05 04:35:28;;;;;;;9.60;5.50;;;;;;;11.12;72.16;101253.37;107910;1256;72651;-80
2023/10/05 04:37:56;;;;;;;12.60;5.70;;;;;;;11.15;72.09;101251.57;107887;1256;72679;-79
2023/10/05 04:40:25;;;;;;;10.50;5.50;;;;;;;11.18;72.15;101253.95;107934;1256;61655;-79
2023/10/05 04:42:58;;;;;;;8.20;5.20;;;;;;;11.21;72.09;101261.48;107733;1256;59472;-80
2023/10/05 04:45:27;;;;;;;10.00;5.20;;;;;;;11.23;72.23;101261.70;107871;1256;73870;-80
2023/10/05 04:47:58;;;;;;;7.70;5.80;;;;;;;11.25;72.13;101261.35;107739;1256;71336;-80
2023/10/05 04:50:27;;;;;;;7.00;4.40;;;;;;;11.28;72.12;101268.02;107751;1256;74637;-81
2023/10/05 04:52:55;;;;;;;9.30;5.50;;;;;;;11.29;72.06;101276.01;107772;1256;60908;-80
2023/10/05 04:55:30;;;;;;;10.80;5.40;;;;;;;11.32;72.25;101275.05;107723;1256;59469;-81
2023/10/05 05:06:15;;;;;;;7.60;5.10;;;;;;;11.51;71.86;101274.56;107768;1256;60610;-80
2023/10/05 05:08:43;;;;;;;10.20;5.10;;;;;;;11.52;71.64;101274.05;107746;1257;60342;-80
2023/10/05 05:11:18;;;;;;;9.70;5.80;;;;;;;11.50;71.74;101272.57;107733;1256;72659;-80
2023/10/05 05:13:48;;;;;;;7.80;5.20;;;;;;;11.51;71.68;101275.70;107762;1256;73203;-80
2023/10/05 05:16:16;;;;;;;11.20;6.30;;;;;;;11.51;71.77;101275.85;108028;1261;72766;-81
2023/10/05 05:18:44;;;;;;;10.60;5.40;;;;;;;11.53;71.79;101276.25;107974;1257;61818;-80
2023/10/05 05:21:12;;;;;;;11.00;5.60;;;;;;;11.55;71.81;101281.90;107782;1256;60100;-80
2023/10/05 05:23:41;;;;;;;11.10;5.30;;;;;;;11.59;71.84;101280.30;107781;1257;74863;-80
2023/10/05 05:26:10;;;;;;;7.50;5.80;;;;;;;11.64;71.77;101282.09;107691;1256;73915;-80
2023/10/05 05:28:38;;;;;;;8.80;5.60;;;;;;;11.72;71.63;101274.02;107834;1257;73200;-80
2023/10/05 05:31:16;;;;;;;11.00;6.20;;;;;;;11.79;71.50;101274.53;107706;1256;63850;-80
2023/10/05 05:33:45;;;;;;;9.80;5.60;;;;;;;11.86;71.41;101281.29;107719;1256;60123;-80
2023/10/05 05:36:13;;;;;;;11.20;5.90;;;;;;;11.93;71.18;101282.41;107869;1256;73947;-80
2023/10/05 05:38:41;;;;;;;14.10;6.60;;;;;;;11.99;71.07;101278.14;107915;1256;72840;-80
2023/10/05 05:41:11;;;;;;;10.40;6.50;;;;;;;12.07;70.76;101280.86;107725;1262;71492;-80
2023/10/05 05:43:41;;;;;;;10.00;5.80;;;;;;;12.15;70.69;101283.27;108079;1256;61931;-81
2023/10/05 05:46:12;;;;;;;10.40;5.50;;;;;;;12.23;70.38;101278.23;107732;1256;61354;-81
2023/10/05 05:48:42;;;;;;;10.50;6.70;;;;;;;12.29;70.16;101273.46;107874;1256;74373;-80
2023/10/05 05:51:23;;;;;;;9.30;5.60;;;;;;;12.36;70.05;101275.00;107694;1256;72844;-80
2023/10/05 05:53:52;;;;;;;13.70;7.40;;;;;;;12.48;69.89;101276.52;107690;1256;70239;-81
2023/10/05 05:56:25;;;;;;;12.60;7.80;;;;;;;12.57;69.68;101277.37;107687;1256;60782;-80
2023/10/05 05:58:52;;;;;;;15.00;9.00;;;;;;;12.67;69.48;101283.78;107732;1262;60335;-80
2023/10/05 06:01:23;;;;;;;11.50;7.20;;;;;;;12.76;69.35;101288.65;107954;1256;73091;-80
2023/10/05 06:03:51;;;;;;;9.80;5.50;;;;;;;12.87;69.18;101288.80;107804;1256;72902;-82
2023/10/05 06:06:19;;;;;;;12.20;5.50;;;;;;;12.90;68.44;101285.52;107623;1257;74949;-81
2023/10/05 06:08:47;;;;;;;9.60;4.80;;;;;;;12.94;68.47;101281.52;107941;1257;61594;-82
2023/10/05 06:11:15;;;;;;;7.70;4.80;;;;;;;12.99;68.17;101282.10;107720;1257;59711;-81
2023/10/05 06:13:45;;;;;;;10.00;5.10;;;;;;;13.01;67.90;101284.70;107756;1262;72969;-80
2023/10/05 06:16:14;;;;;;;9.40;5.70;;;;;;;13.07;67.77;101287.37;107739;1256;73017;-80
2023/10/05 06:18:43;;;;;;;10.70;5.70;;;;;;;13.15;67.62;101286.80;107884;1257;72773;-80
2023/10/05 06:21:12;;;;;;;8.40;5.90;;;;;;;13.26;67.48;101289.16;107897;1256;60852;-80
2023/10/05 06:23:39;;;;;;;10.90;5.90;;;;;;;13.37;67.08;101290.58;107969;1261;60791;-80
2023/10/05 06:26:07;;;;;;;11.50;5.90;;;;;;;13.46;66.87;101288.18;107896;1256;73980;-81
2023/10/05 06:28:34;;;;;;;9.20;5.10;;;;;;;13.55;66.53;101295.59;107975;1256;73491;-81
2023/10/05 06:31:03;;;;;;;10.70;5.30;;;;;;;13.61;66.16;101293.00;107706;1258;73187;-82
2023/10/05 06:33:33;;;;;;;9.30;5.50;;;;;;;13.65;65.81;101293.45;107784;1258;63861;-81
2023/10/05 06:36:04;;;;;;;9.60;5.30;;;;;;;13.69;65.61;101291.66;107750;1261;60569;-81
2023/10/05 06:38:32;;;;;;;8.30;4.80;;;;;;;13.74;65.44;101292.75;107729;1260;72214;-80
2023/10/05 06:40:59;;;;;;;8.50;4.80;;;;;;;13.80;65.47;101292.20;108029;1262;71620;-81
2023/10/05 06:43:27;;;;;;;12.40;5.70;;;;;;;13.87;65.50;101293.54;107970;1256;74800;-81
2023/10/05 06:46:08;;;;;;;8.50;4.70;;;;;;;13.97;65.42;101293.47;107713;1256;60468;-81
2023/10/05 06:48:37;;;;;;;11.20;5.30;;;;;;;14.08;65.22;101295.62;107757;1262;59336;-80
2023/10/05 06:51:07;;;;;;;10.60;4.90;;;;;;;14.16;64.83;101292.37;107971;1256;74237;-81
2023/10/05 06:53:37;;;;;;;8.60;4.60;;;;;;;14.24;64.60;101291.38;107816;1262;74995;-80
2023/10/05 06:56:05;;;;;;;8.00;4.50;;;;;;;14.35;64.39;101290.14;107835;1257;72868;-80
2023/10/05 06:58:33;;;;;;;10.40;4.50;;;;;;;14.43;63.82;101293.48;107877;1260;62653;-80
2023/10/05 07:01:01;;;;;;;10.10;4.40;;;;;;;14.50;63.56;101291.33;107838;1258;60139;-81
2023/10/05 07:03:28;;;;;;;6.90;4.40;;;;;;;14.54;63.34;101287.36;107653;1262;73984;-81
2023/10/05 07:05:57;;;;;;;9.40;4.50;;;;;;;14.63;63.38;101292.21;107681;1256;72889;-82
2023/10/05 07:08:25;;;;;;;9.10;4.40;;;;;;;14.72;62.94;101294.23;107702;1256;72782;-82
2023/10/05 07:10:55;;;;;;;10.40;4.70;;;;;;;14.77;62.64;101293.60;107659;1258;61690;-82
2023/10/05 07:13:24;;;;;;;9.20;4.80;;;;;;;14.83;62.31;101294.23;107706;1257;60127;-80
2023/10/05 07:15:52;;;;;;;9.40;4.50;;;;;;;14.91;62.38;101294.20;107891;1257;76300;-81
2023/10/05 07:18:19;;;;;;;9.20;4.70;;;;;;;15.02;62.26;101292.59;107814;1262;73532;-81
2023/10/05 07:20:48;;;;;;;9.10;4.20;;;;;;;15.12;62.21;101295.67;107858;1258;74865;-81
2023/10/05 07:23:16;;;;;;;7.50;4.50;;;;;;;15.23;61.89;101292.60;107875;1257;60766;-80
2023/10/05 07:25:43;;;;;;;10.80;4.90;;;;;;;15.37;61.41;101289.63;107690;1259;59345;-79
2023/10/05 07:28:15;;;;;;;9.40;4.80;;;;;;;15.40;61.23;101292.31;107755;1257;73282;-81
2023/10/05 07:30:43;;;;;;;10.90;4.70;;;;;;;15.49;61.10;101293.48;107850;1262;72721;-82
2023/10/05 07:33:14;;;;;;;10.50;4.90;;;;;;;15.60;61.02;101298.90;107696;1257;71480;-80
2023/10/05 07:35:43;;;;;;;10.70;4.80;;;;;;;15.70;60.64;101290.84;107646;1257;61746;-81
2023/10/05 07:38:11;;;;;;;9.20;4.40;;;;;;;15.76;60.38;101283.28;107705;1257;60367;-80
2023/10/05 07:40:39;;;;;;;8.60;4.70;;;;;;;15.83;60.26;101284.71;107841;1257;73849;-82
2023/10/05 07:43:08;;;;;;;10.20;4.90;;;;;;;15.91;59.98;101276.29;107871;1258;75113;-82
2023/10/05 07:45:37;;;;;;;8.90;4.20;;;;;;;16.00;59.67;101275.87;107930;1257;73619;-82
2023/10/05 07:48:06;;;;;;;8.30;4.60;;;;;;;16.07;59.48;101275.95;107686;1257;60344;-81
2023/10/05 07:50:34;;;;;;;11.20;4.50;;;;;;;16.13;59.11;101277.11;107895;1261;60367;-81
2023/10/05 07:53:02;;;;;;;12.70;4.40;;;;;;;16.20;58.74;101277.46;107790;1260;74014;-81
2023/10/05 07:55:31;;;;;;;9.70;5.00;;;;;;;16.21;58.33;101272.48;107695;1256;72886;-81
2023/10/05 07:58:02;;;;;;;10.90;4.80;;;;;;;16.23;58.36;101271.52;107679;1258;72771;-82
2023/10/05 08:00:30;;;;;;;10.30;4.70;;;;;;;16.28;58.25;101265.17;107886;1257;61854;-81
2023/10/05 08:02:57;;;;;;;11.40;4.80;;;;;;;16.37;58.30;101270.36;107697;1257;60316;-81
2023/10/05 08:05:26;;;;;;;10.90;4.60;;;;;;;16.47;58.15;101266.27;107736;1258;74018;-82
2023/10/05 08:07:56;;;;;;;10.00;4.70;;;;;;;16.58;58.05;101263.01;107689;1262;72921;-81
2023/10/05 08:10:24;;;;;;;8.70;4.30;;;;;;;16.72;57.91;101259.95;107715;1258;71483;-81
2023/10/05 08:12:53;;;;;;;8.70;4.50;;;;;;;16.83;57.52;101257.73;107745;1257;60313;-80
2023/10/05 08:15:21;;;;;;;8.20;4.00;;;;;;;16.95;57.23;101253.75;107903;1257;60453;-82
2023/10/05 08:17:49;;;;;;;7.60;3.70;;;;;;;17.06;56.58;101252.64;107872;1258;73950;-83
2023/10/05 08:20:18;;;;;;;7.50;3.80;;;;;;;17.14;56.30;101255.27;107867;1257;72898;-81
2023/10/05 08:22:51;;;;;;;9.60;4.30;;;;;;;17.19;55.95;101253.71;107851;1261;72736;-81
2023/10/05 08:25:20;;;;;;;7.10;4.00;;;;;;;17.27;55.54;101251.80;107796;1257;60367;-81
2023/10/05 08:27:48;;;;;;;8.90;4.20;;;;;;;17.31;54.95;101246.58;107896;1257;61301;-81
2023/10/05 08:30:16;;;;;;;8.30;3.70;;;;;;;17.35;55.07;101241.13;107950;1256;74004;-81
2023/10/05 08:32:47;;;;;;;9.60;4.10;;;;;;;17.40;54.76;101237.27;107754;1262;72927;-81
2023/10/05 08:35:19;;;;;;;10.60;3.90;;;;;;;17.48;54.65;101240.57;107893;1257;72912;-80
2023/10/05 08:37:49;;;;;;;7.70;3.50;;;;;;;17.51;53.85;101239.89;107946;1257;60313;-82
2023/10/05 08:43:12;;;;;;;8.70;3.50;;;;;;;17.60;53.97;101232.61;107737;1257;74036;-82
2023/10/05 08:45:50;;;;;;;7.40;3.30;;;;;;;17.69;53.59;101233.38;107917;1263;72864;-82
2023/10/05 08:48:28;;;;;;;7.60;3.70;;;;;;;17.74;52.76;101235.38;107762;1262;74862;-82
2023/10/05 08:51:15;;;;;;;8.90;3.80;;;;;;;17.75;52.43;101231.10;107717;1257;60470;-81
2023/10/05 08:53:48;;;;;;;8.40;3.80;;;;;;;17.79;52.34;101231.18;107866;1257;60456;-82
2023/10/05 08:56:17;;;;;;;5.00;3.60;;;;;;;17.87;52.26;101228.80;107905;1257;73900;-82
2023/10/05 08:58:46;;;;;;;10.30;3.90;;;;;;;17.96;51.82;101222.80;107940;1262;71608;-82
2023/10/05 09:01:26;;;;;;;9.00;3.60;;;;;;;18.08;51.72;101218.80;108162;1257;73648;-82
2023/10/05 09:07:08;;;;;;;7.50;3.40;;;;;;;18.17;50.97;101216.20;108340;1257;59510;-81
2023/10/05 09:09:52;;;;;;;7.40;3.60;;;;;;;18.21;50.78;101214.14;108450;1256;72790;-82
2023/10/05 09:12:40;;;;;;;6.70;3.60;;;;;;;18.24;50.46;101213.08;108383;1257;71410;-82
2023/10/05 09:18:17;;;;;;;10.80;3.60;;;;;;;18.26;50.12;101211.58;108174;1260;59748;-80
2023/10/05 09:20:55;;;;;;;8.60;3.20;;;;;;;18.35;50.41;101211.61;108030;1257;59424;-81
2023/10/05 09:23:24;;;;;;;7.80;3.00;;;;;;;18.44;49.56;101209.70;108061;1260;73270;-81
2023/10/05 09:25:53;;;;;;;7.60;3.30;;;;;;;18.52;49.32;101204.71;107793;1258;71630;-82
2023/10/05 09:28:45;;;;;;;7.60;3.40;;;;;;;18.52;49.18;101200.06;107751;1257;72951;-82
2023/10/05 09:31:13;;;;;;;6.90;2.80;;;;;;;18.48;48.88;101195.13;107728;1257;60485;-81
2023/10/05 09:33:53;;;;;;;6.50;3.10;;;;;;;18.48;49.09;101192.36;107713;1257;60400;-80
2023/10/05 09:36:39;;;;;;;6.30;3.50;;;;;;;18.55;49.13;101193.36;107960;1257;74788;-82
2023/10/05 09:39:08;;;;;;;9.00;3.60;;;;;;;18.58;48.58;101189.63;107939;1257;73729;-80
2023/10/05 09:41:36;;;;;;;7.30;3.30;;;;;;;18.56;48.67;101191.02;107741;1257;71816;-81
2023/10/05 09:44:07;;;;;;;6.90;3.20;;;;;;;18.54;48.32;101190.39;107771;1257;62458;-83
2023/10/05 09:46:35;;;;;;;8.30;3.00;;;;;;;18.52;48.29;101191.14;107800;1257;61018;-82
2023/10/05 09:49:05;;;;;;;6.00;2.90;;;;;;;18.47;48.04;101189.96;107716;1257;73016;-82
2023/10/05 09:51:35;;;;;;;9.20;3.90;;;;;;;18.44;48.11;101180.11;107612;1257;72879;-82
2023/10/05 09:54:03;;;;;;;8.40;3.50;;;;;;;18.44;48.65;101177.66;107765;1256;72848;-81
2023/10/05 09:56:31;;;;;;;6.40;2.90;;;;;;;18.49;48.62;101173.86;107872;1262;60305;-81
2023/10/05 09:59:15;;;;;;;6.40;2.90;;;;;;;18.59;48.55;101168.34;107798;1257;60132;-86
2023/10/05 10:01:45;;;;;;;7.90;2.80;;;;;;;18.70;48.00;101166.44;107796;1257;73920;-89
2023/10/05 10:04:24;;;;;;;6.50;3.00;;;;;;;18.75;47.63;101163.98;107715;1262;73155;-85
2023/10/05 10:06:53;;;;;;;6.40;2.80;;;;;;;18.80;47.60;101160.71;107813;1261;71452;-88
2023/10/05 10:09:26;;;;;;;7.20;2.70;;;;;;;18.87;47.73;101163.61;107931;1257;60353;-83
2023/10/05 10:11:59;;;;;;;7.70;3.20;;;;;;;18.88;47.25;101169.84;107870;1257;60329;-88
2023/10/05 10:14:27;;;;;;;6.60;2.90;;;;;;;18.81;47.11;101162.42;108119;1257;74084;-89
2023/10/05 10:17:02;;;;;;;7.50;3.20;;;;;;;18.78;47.66;101164.91;107748;1257;72380;-88
2023/10/05 10:19:45;;;;;;;7.30;3.20;;;;;;;18.83;47.94;101165.98;107830;1257;71989;-90
2023/10/05 10:22:13;;;;;;;6.10;3.00;;;;;;;18.88;47.34;101160.41;107623;1257;60328;-91
2023/10/05 10:24:42;;;;;;;8.00;3.50;;;;;;;18.90;46.96;101162.44;107803;1257;60403;-90
2023/10/05 10:27:15;;;;;;;6.90;2.90;;;;;;;18.87;47.18;101157.72;107587;1263;72737;-88
2023/10/05 10:29:45;;;;;;;8.00;3.20;;;;;;;18.82;46.73;101157.38;108019;1257;71607;-89
2023/10/05 10:32:20;;;;;;;5.00;2.70;;;;;;;18.78;47.11;101159.27;108105;1260;72579;-89
2023/10/05 10:34:55;;;;;;;5.90;3.00;;;;;;;18.78;46.65;101153.71;107922;1257;60444;-90
2023/10/05 10:37:38;;;;;;;6.30;3.10;;;;;;;18.77;46.68;101151.19;107863;1257;62232;-88
2023/10/05 10:42:55;;;;;;;7.90;3.40;;;;;;;18.88;46.01;101146.23;107801;1257;72868;-88
2023/10/05 10:45:28;;;;;;;6.60;2.90;;;;;;;18.95;46.30;101141.88;107785;1257;71464;-88
2023/10/05 10:47:56;;;;;;;6.70;3.00;;;;;;;19.11;46.55;101139.58;107738;1257;60372;-90
2023/10/05 10:50:31;;;;;;;7.80;3.50;;;;;;;19.28;46.00;101135.78;107822;1256;60398;-90
2023/10/05 10:52:59;;;;;;;6.70;3.20;;;;;;;19.40;45.42;101130.72;107771;1257;73931;-90
2023/10/05 10:55:31;;;;;;;6.90;3.10;;;;;;;19.46;45.10;101129.89;107741;1257;74633;-89
2023/10/05 10:58:04;;;;;;;6.60;3.20;;;;;;;19.52;45.27;101129.17;107763;1260;73785;-91
2023/10/05 11:03:11;;;;;;;6.90;3.10;;;;;;;19.49;44.93;101124.96;107797;1256;59587;-88
2023/10/05 11:05:40;;;;;;;6.10;2.80;;;;;;;19.56;45.77;101128.33;107835;1257;73569;-91
2023/10/05 11:08:10;;;;;;;7.00;3.40;;;;;;;19.64;45.13;101131.77;107908;1257;71919;-90
2023/10/05 11:10:40;;;;;;;6.70;2.90;;;;;;;19.67;44.74;101124.76;107842;1257;72799;-88
2023/10/05 11:13:14;;;;;;;9.10;3.50;;;;;;;19.63;44.81;101119.09;107752;1258;60300;-91
2023/10/05 11:15:49;;;;;;;7.50;3.40;;;;;;;19.61;45.09;101115.11;107900;1257;60125;-90
2023/10/05 11:18:20;;;;;;;7.10;2.90;;;;;;;19.64;45.07;101106.34;107903;1257;74014;-89
2023/10/05 11:20:52;;;;;;;6.80;2.90;;;;;;;19.69;45.00;101099.67;107858;1257;71879;-90
2023/10/05 11:23:25;;;;;;;7.40;3.10;;;;;;;19.76;45.08;101101.09;107774;1257;72824;-91
2023/10/05 11:26:17;;;;;;;6.60;3.20;;;;;;;19.83;44.95;101100.44;107892;1257;60543;-89
2023/10/05 11:28:51;;;;;;;7.70;3.10;;;;;;;19.86;43.86;101100.55;107923;1257;62093;-91
2023/10/05 11:31:24;;;;;;;7.60;3.00;;;;;;;19.85;43.68;101098.19;107897;1258;76034;-90
2023/10/05 11:34:19;;;;;;;6.50;2.90;;;;;;;19.84;43.79;101094.89;108063;1257;71888;-90
2023/10/05 11:37:15;;;;;;;7.60;3.20;;;;;;;19.83;43.66;101090.73;107819;1256;74734;-90
2023/10/05 11:39:49;;;;;;;8.40;3.70;;;;;;;19.85;43.73;101090.54;107807;1257;60332;-90
2023/10/05 11:42:24;;;;;;;7.00;3.10;;;;;;;19.90;43.97;101085.49;107706;1257;60335;-90
2023/10/05 11:45:12;;;;;;;6.90;3.30;;;;;;;19.90;43.76;101083.80;107670;1257;73941;-92
2023/10/05 11:47:46;;;;;;;10.30;3.60;;;;;;;19.88;43.65;101079.08;107767;1262;71738;-91
2023/10/05 11:53:08;;;;;;;7.30;3.00;;;;;;;19.81;44.12;101077.41;107566;1260;60562;-91
2023/10/05 11:55:35;;;;;;;7.50;3.70;;;;;;;19.77;43.84;101075.92;107852;1257;60421;-90
2023/10/05 11:58:04;;;;;;;7.40;3.20;;;;;;;19.70;44.00;101076.63;107762;1257;72722;-91
2023/10/05 12:00:34;;;;;;;8.40;3.40;;;;;;;19.61;43.97;101075.92;107964;1260;71646;-89
2023/10/05 12:03:09;;;;;;;6.20;3.00;;;;;;;19.54;43.88;101074.73;107939;1257;72770;-90
2023/10/05 12:05:38;;;;;;;9.10;3.70;;;;;;;19.47;44.07;101064.44;107820;1257;60374;-90
2023/10/05 12:08:06;;;;;;;7.80;3.20;;;;;;;19.42;44.73;101065.59;107842;1257;60329;-89
2023/10/05 12:10:34;;;;;;;6.80;3.60;;;;;;;19.38;44.48;101065.27;107794;1257;73070;-89
2023/10/05 12:13:02;;;;;;;6.50;3.00;;;;;;;19.35;44.65;101053.77;107858;1256;72945;-90
2023/10/05 12:15:31;;;;;;;6.90;3.00;;;;;;;19.35;44.12;101048.42;107918;1257;71536;-89
2023/10/05 12:17:59;;;;;;;9.40;3.80;;;;;;;19.41;44.44;101046.50;107976;1257;60277;-89